sensor_id;sensor_type;location;lat;lon;timestamp;pressure;altitude;pressure_sealevel;temperature;humidity
48553;BME280;34335;51.566;6.994;2022-08-07T00:00:57;102046.28;;;15.36;55.89
48553;BME280;34335;51.566;6.994;2022-08-07T00:03:22;102044.53;;;15.34;55.83
48553;BME280;34335;51.566;6.994;2022-08-07T00:05:50;102047.13;;;15.27;56.36
48553;BME280;34335;51.566;6.994;2022-08-07T00:08:17;102038.41;;;15.22;56.11
48553;BME280;34335;51.566;6.994;2022-08-07T00:10:43;102040.13;;;15.17;56.30
48553;BME280;34335;51.566;6.994;2022-08-07T00:13:09;102042.78;;;15.14;56.68
48553;BME280;34335;51.566;6.994;2022-08-07T00:15:34;102033.16;;;15.10;56.44
48553;BME280;34335;51.566;6.994;2022-08-07T00:17:59;102045.38;;;15.05;56.73
48553;BME280;34335;51.566;6.994;2022-08-07T00:20:25;102037.50;;;15.02;56.91
48553;BME280;34335;51.566;6.994;2022-08-07T00:22:50;102025.25;;;14.96;56.83
48553;BME280;34335;51.566;6.994;2022-08-07T00:25:16;102030.50;;;14.90;57.38
48553;BME280;34335;51.566;6.994;2022-08-07T00:27:41;102030.47;;;14.87;57.49
48553;BME280;34335;51.566;6.994;2022-08-07T00:30:07;102036.56;;;14.81;57.46
48553;BME280;34335;51.566;6.994;2022-08-07T00:32:33;102035.69;;;14.79;57.18
48553;BME280;34335;51.566;6.994;2022-08-07T00:34:58;102030.44;;;14.73;57.80
48553;BME280;34335;51.566;6.994;2022-08-07T00:37:23;102027.81;;;14.70;57.92
48553;BME280;34335;51.566;6.994;2022-08-07T00:39:50;102029.53;;;14.68;57.78
48553;BME280;34335;51.566;6.994;2022-08-07T00:42:18;102032.97;;;14.62;57.66
48553;BME280;34335;51.566;6.994;2022-08-07T00:44:43;102027.75;;;14.60;58.25
48553;BME280;34335;51.566;6.994;2022-08-07T00:47:09;102031.25;;;14.58;58.70
48553;BME280;34335;51.566;6.994;2022-08-07T00:49:34;102024.25;;;14.52;58.60
48553;BME280;34335;51.566;6.994;2022-08-07T00:51:59;102022.47;;;14.48;58.21
48553;BME280;34335;51.566;6.994;2022-08-07T00:54:24;102027.72;;;14.45;58.52
48553;BME280;34335;51.566;6.994;2022-08-07T00:56:50;102022.44;;;14.42;58.30
48553;BME280;34335;51.566;6.994;2022-08-07T00:59:17;102021.56;;;14.37;58.68
48553;BME280;34335;51.566;6.994;2022-08-07T01:01:42;102019.78;;;14.32;58.86
48553;BME280;34335;51.566;6.994;2022-08-07T01:04:08;102011.91;;;14.29;58.97
48553;BME280;34335;51.566;6.994;2022-08-07T01:06:34;102015.41;;;14.25;59.15
48553;BME280;34335;51.566;6.994;2022-08-07T01:09:00;102008.41;;;14.21;59.29
48553;BME280;34335;51.566;6.994;2022-08-07T01:11:27;102008.38;;;14.15;59.00
48553;BME280;34335;51.566;6.994;2022-08-07T01:13:52;102007.50;;;14.11;58.98
48553;BME280;34335;51.566;6.994;2022-08-07T01:16:18;102005.72;;;14.07;59.27
48553;BME280;34335;51.566;6.994;2022-08-07T01:18:44;102006.59;;;14.05;59.41
48553;BME280;34335;51.566;6.994;2022-08-07T01:21:11;101994.34;;;13.99;59.84
48553;BME280;34335;51.566;6.994;2022-08-07T01:23:39;101997.81;;;13.99;59.88
48553;BME280;34335;51.566;6.994;2022-08-07T01:26:10;102000.41;;;13.95;59.79
48553;BME280;34335;51.566;6.994;2022-08-07T01:28:38;101998.66;;;13.91;60.21
48553;BME280;34335;51.566;6.994;2022-08-07T01:31:04;102004.75;;;13.88;62.81
48553;BME280;34335;51.566;6.994;2022-08-07T01:33:31;101996.91;;;13.88;62.04
48553;BME280;34335;51.566;6.994;2022-08-07T01:35:57;101992.47;;;13.81;60.28
48553;BME280;34335;51.566;6.994;2022-08-07T01:38:24;101993.31;;;13.72;60.11
48553;BME280;34335;51.566;6.994;2022-08-07T01:40:50;101985.47;;;13.70;60.10
48553;BME280;34335;51.566;6.994;2022-08-07T01:43:16;101991.53;;;13.66;60.73
48553;BME280;34335;51.566;6.994;2022-08-07T01:45:42;101985.41;;;13.63;60.29
48553;BME280;34335;51.566;6.994;2022-08-07T01:48:07;101986.25;;;13.57;60.71
48553;BME280;34335;51.566;6.994;2022-08-07T01:50:36;101981.78;;;13.42;69.34
48553;BME280;34335;51.566;6.994;2022-08-07T01:53:02;101984.25;;;13.27;65.01
48553;BME280;34335;51.566;6.994;2022-08-07T01:55:36;101985.16;;;13.32;62.68
48553;BME280;34335;51.566;6.994;2022-08-07T01:58:07;101988.63;;;13.32;61.95
48553;BME280;34335;51.566;6.994;2022-08-07T02:00:35;101988.63;;;13.32;61.98
48553;BME280;34335;51.566;6.994;2022-08-07T02:03:06;101978.16;;;13.31;62.01
48553;BME280;34335;51.566;6.994;2022-08-07T02:05:54;101980.75;;;13.28;61.69
48553;BME280;34335;51.566;6.994;2022-08-07T02:08:22;101978.09;;;13.23;61.85
48553;BME280;34335;51.566;6.994;2022-08-07T02:10:49;101974.63;;;13.21;62.13
48553;BME280;34335;51.566;6.994;2022-08-07T02:13:22;101976.34;;;13.19;62.50
48553;BME280;34335;51.566;6.994;2022-08-07T02:15:49;101977.16;;;13.15;62.16
48553;BME280;34335;51.566;6.994;2022-08-07T02:18:17;101967.56;;;13.12;62.24
48553;BME280;34335;51.566;6.994;2022-08-07T02:20:44;101977.13;;;13.07;62.01
48553;BME280;34335;51.566;6.994;2022-08-07T02:23:10;101984.06;;;13.05;63.18
48553;BME280;34335;51.566;6.994;2022-08-07T02:25:38;101972.72;;;13.01;62.53
48553;BME280;34335;51.566;6.994;2022-08-07T02:28:05;101973.53;;;12.97;62.69
48553;BME280;34335;51.566;6.994;2022-08-07T02:30:33;101966.53;;;12.93;62.62
48553;BME280;34335;51.566;6.994;2022-08-07T02:32:59;101970.88;;;12.91;63.03
48553;BME280;34335;51.566;6.994;2022-08-07T02:35:26;101966.50;;;12.90;63.15
48553;BME280;34335;51.566;6.994;2022-08-07T02:37:53;101970.81;;;12.88;63.06
48553;BME280;34335;51.566;6.994;2022-08-07T02:40:20;101969.97;;;12.89;63.04
48553;BME280;34335;51.566;6.994;2022-08-07T02:42:46;101965.56;;;12.85;64.08
48553;BME280;34335;51.566;6.994;2022-08-07T02:45:13;101970.72;;;12.78;63.08
48553;BME280;34335;51.566;6.994;2022-08-07T02:47:41;101962.00;;;12.76;63.43
48553;BME280;34335;51.566;6.994;2022-08-07T02:50:07;101974.16;;;12.71;63.20
48553;BME280;34335;51.566;6.994;2022-08-07T02:52:36;101968.03;;;12.71;63.51
48553;BME280;34335;51.566;6.994;2022-08-07T02:55:07;101968.88;;;12.67;63.45
48553;BME280;34335;51.566;6.994;2022-08-07T02:57:35;101971.50;;;12.67;63.75
48553;BME280;34335;51.566;6.994;2022-08-07T03:00:03;101964.66;;;12.81;69.46
48553;BME280;34335;51.566;6.994;2022-08-07T03:02:29;101957.50;;;12.60;65.00
48553;BME280;34335;51.566;6.994;2022-08-07T03:04:57;101960.91;;;12.56;66.30
48553;BME280;34335;51.566;6.994;2022-08-07T03:07:24;101966.94;;;12.49;64.74
48553;BME280;34335;51.566;6.994;2022-08-07T03:09:51;101962.56;;;12.44;64.48
48553;BME280;34335;51.566;6.994;2022-08-07T03:12:17;101970.34;;;12.41;64.43
48553;BME280;34335;51.566;6.994;2022-08-07T03:14:42;101963.38;;;12.39;64.53
48553;BME280;34335;51.566;6.994;2022-08-07T03:17:08;101964.16;;;12.35;64.21
48553;BME280;34335;51.566;6.994;2022-08-07T03:19:34;101972.88;;;12.35;64.22
48553;BME280;34335;51.566;6.994;2022-08-07T03:22:01;101967.63;;;12.34;65.09
48553;BME280;34335;51.566;6.994;2022-08-07T03:24:27;101972.00;;;12.35;64.84
48553;BME280;34335;51.566;6.994;2022-08-07T03:26:53;101975.44;;;12.32;65.26
48553;BME280;34335;51.566;6.994;2022-08-07T03:29:20;101967.63;;;12.30;65.93
48553;BME280;34335;51.566;6.994;2022-08-07T03:31:46;101968.47;;;12.31;69.95
48553;BME280;34335;51.566;6.994;2022-08-07T03:34:13;101965.94;;;12.36;70.32
48553;BME280;34335;51.566;6.994;2022-08-07T03:36:41;101963.09;;;12.19;65.52
48553;BME280;34335;51.566;6.994;2022-08-07T03:39:08;101963.16;;;12.22;70.74
48553;BME280;34335;51.566;6.994;2022-08-07T03:41:36;101966.53;;;12.14;65.95
48553;BME280;34335;51.566;6.994;2022-08-07T03:44:02;101963.94;;;12.16;66.63
48553;BME280;34335;51.566;6.994;2022-08-07T03:46:28;101959.53;;;12.12;65.44
48553;BME280;34335;51.566;6.994;2022-08-07T03:48:55;101957.75;;;12.06;65.77
48553;BME280;34335;51.566;6.994;2022-08-07T03:51:20;101955.94;;;12.02;65.49
48553;BME280;34335;51.566;6.994;2022-08-07T03:53:47;101961.97;;;11.98;65.57
48553;BME280;34335;51.566;6.994;2022-08-07T03:56:17;101960.16;;;11.95;65.54
48553;BME280;34335;51.566;6.994;2022-08-07T03:58:43;101963.63;;;11.93;65.39
48553;BME280;34335;51.566;6.994;2022-08-07T04:01:09;101966.16;;;11.90;65.67
48553;BME280;34335;51.566;6.994;2022-08-07T04:03:35;101962.69;;;11.88;65.70
48553;BME280;34335;51.566;6.994;2022-08-07T04:06:01;101963.56;;;11.90;67.77
48553;BME280;34335;51.566;6.994;2022-08-07T04:08:26;101968.72;;;11.85;66.31
48553;BME280;34335;51.566;6.994;2022-08-07T04:10:52;101957.38;;;11.81;66.33
48553;BME280;34335;51.566;6.994;2022-08-07T04:13:18;101954.75;;;11.80;66.90
48553;BME280;34335;51.566;6.994;2022-08-07T04:15:44;101959.06;;;11.76;66.12
48553;BME280;34335;51.566;6.994;2022-08-07T04:18:12;101961.63;;;11.75;66.22
48553;BME280;34335;51.566;6.994;2022-08-07T04:20:38;101964.22;;;11.73;66.39
48553;BME280;34335;51.566;6.994;2022-08-07T04:23:04;101962.47;;;11.72;66.76
48553;BME280;34335;51.566;6.994;2022-08-07T04:25:30;101954.63;;;11.72;66.65
48553;BME280;34335;51.566;6.994;2022-08-07T04:27:56;101968.50;;;11.69;66.59
48553;BME280;34335;51.566;6.994;2022-08-07T04:30:21;101956.31;;;11.68;66.71
48553;BME280;34335;51.566;6.994;2022-08-07T04:32:47;101965.88;;;11.68;66.58
48553;BME280;34335;51.566;6.994;2022-08-07T04:35:13;101967.63;;;11.69;66.78
48553;BME280;34335;51.566;6.994;2022-08-07T04:37:39;101970.22;;;11.69;66.45
48553;BME280;34335;51.566;6.994;2022-08-07T04:40:05;101969.34;;;11.68;66.70
48553;BME280;34335;51.566;6.994;2022-08-07T04:42:30;101967.72;;;11.75;69.86
48553;BME280;34335;51.566;6.994;2022-08-07T04:44:57;101969.38;;;11.70;66.97
48553;BME280;34335;51.566;6.994;2022-08-07T04:47:38;101964.94;;;11.63;66.44
48553;BME280;34335;51.566;6.994;2022-08-07T04:50:22;101969.28;;;11.64;67.76
48553;BME280;34335;51.566;6.994;2022-08-07T04:53:13;101973.66;;;11.65;67.96
48553;BME280;34335;51.566;6.994;2022-08-07T04:55:50;101978.88;;;11.65;68.36
48553;BME280;34335;51.566;6.994;2022-08-07T04:58:23;101984.97;;;11.67;68.69
48553;BME280;34335;51.566;6.994;2022-08-07T05:01:07;101982.41;;;11.70;69.34
48553;BME280;34335;51.566;6.994;2022-08-07T05:04:07;101984.19;;;11.73;70.30
48553;BME280;34335;51.566;6.994;2022-08-07T05:06:46;101987.75;;;11.79;71.17
48553;BME280;34335;51.566;6.994;2022-08-07T05:09:37;101978.34;;;11.88;72.52
48553;BME280;34335;51.566;6.994;2022-08-07T05:12:06;101978.41;;;11.94;72.91
48553;BME280;34335;51.566;6.994;2022-08-07T05:14:42;101985.47;;;11.99;73.28
48553;BME280;34335;51.566;6.994;2022-08-07T05:17:10;101982.94;;;12.06;73.42
48553;BME280;34335;51.566;6.994;2022-08-07T05:19:46;101983.91;;;12.12;73.51
48553;BME280;34335;51.566;6.994;2022-08-07T05:22:15;101978.00;;;12.27;76.68
48553;BME280;34335;51.566;6.994;2022-08-07T05:24:42;101985.09;;;12.38;78.60
48553;BME280;34335;51.566;6.994;2022-08-07T05:27:11;101979.81;;;12.35;74.90
48553;BME280;34335;51.566;6.994;2022-08-07T05:29:38;101979.81;;;12.35;74.56
48553;BME280;34335;51.566;6.994;2022-08-07T05:32:06;101987.69;;;12.39;73.46
48553;BME280;34335;51.566;6.994;2022-08-07T05:34:34;101990.41;;;12.47;73.99
48553;BME280;34335;51.566;6.994;2022-08-07T05:37:00;101993.13;;;12.58;73.82
48553;BME280;34335;51.566;6.994;2022-08-07T05:39:26;101986.31;;;12.69;74.36
48553;BME280;34335;51.566;6.994;2022-08-07T05:41:51;101984.69;;;12.81;73.78
48553;BME280;34335;51.566;6.994;2022-08-07T05:44:18;101991.72;;;12.88;73.45
48553;BME280;34335;51.566;6.994;2022-08-07T05:46:47;101990.09;;;12.98;73.09
48553;BME280;34335;51.566;6.994;2022-08-07T05:49:13;101989.31;;;13.08;73.80
48553;BME280;34335;51.566;6.994;2022-08-07T05:51:41;101992.88;;;13.16;72.74
48553;BME280;34335;51.566;6.994;2022-08-07T05:54:07;101982.53;;;13.33;73.90
48553;BME280;34335;51.566;6.994;2022-08-07T05:56:33;101991.31;;;13.38;72.50
48553;BME280;34335;51.566;6.994;2022-08-07T05:59:01;101998.41;;;13.53;73.01
48553;BME280;34335;51.566;6.994;2022-08-07T06:01:28;101994.94;;;13.58;72.03
48553;BME280;34335;51.566;6.994;2022-08-07T06:03:55;101999.41;;;13.69;71.98
48553;BME280;34335;51.566;6.994;2022-08-07T06:06:22;102006.50;;;13.92;71.87
48553;BME280;34335;51.566;6.994;2022-08-07T06:08:48;101999.53;;;13.94;71.31
48553;BME280;34335;51.566;6.994;2022-08-07T06:11:15;101998.75;;;14.08;71.40
48553;BME280;34335;51.566;6.994;2022-08-07T06:13:40;102002.34;;;14.31;72.24
48553;BME280;34335;51.566;6.994;2022-08-07T06:16:07;101999.78;;;14.38;70.88
48553;BME280;34335;51.566;6.994;2022-08-07T06:18:33;102003.34;;;14.60;71.67
48553;BME280;34335;51.566;6.994;2022-08-07T06:21:03;102004.25;;;14.70;71.30
48553;BME280;34335;51.566;6.994;2022-08-07T06:23:29;102002.50;;;14.78;70.72
48553;BME280;34335;51.566;6.994;2022-08-07T06:25:55;102002.56;;;14.89;69.75
48553;BME280;34335;51.566;6.994;2022-08-07T06:28:21;101998.19;;;14.97;68.67
48553;BME280;34335;51.566;6.994;2022-08-07T06:30:47;102013.94;;;15.11;69.47
48553;BME280;34335;51.566;6.994;2022-08-07T06:33:12;101994.72;;;15.24;69.23
48553;BME280;34335;51.566;6.994;2022-08-07T06:35:38;102000.84;;;15.42;68.83
48553;BME280;34335;51.566;6.994;2022-08-07T06:38:05;101995.56;;;15.50;68.17
48553;BME280;34335;51.566;6.994;2022-08-07T06:40:39;101998.19;;;15.62;67.08
48553;BME280;34335;51.566;6.994;2022-08-07T06:43:08;101990.28;;;15.73;66.39
48553;BME280;34335;51.566;6.994;2022-08-07T06:45:34;101988.56;;;15.89;66.05
48553;BME280;34335;51.566;6.994;2022-08-07T06:48:00;101992.88;;;16.04;65.20
48553;BME280;34335;51.566;6.994;2022-08-07T06:50:27;101992.81;;;16.18;65.35
48553;BME280;34335;51.566;6.994;2022-08-07T06:52:54;101994.50;;;16.41;66.38
48553;BME280;34335;51.566;6.994;2022-08-07T06:55:25;101983.03;;;16.59;65.66
48553;BME280;34335;51.566;6.994;2022-08-07T06:57:52;101983.00;;;16.60;64.77
48553;BME280;34335;51.566;6.994;2022-08-07T07:00:19;101982.06;;;16.75;65.03
48553;BME280;34335;51.566;6.994;2022-08-07T07:02:46;101984.56;;;16.97;65.30
48553;BME280;34335;51.566;6.994;2022-08-07T07:05:12;101980.91;;;17.18;64.49
48553;BME280;34335;51.566;6.994;2022-08-07T07:07:38;101981.69;;;17.26;63.61
48553;BME280;34335;51.566;6.994;2022-08-07T07:10:04;101982.41;;;17.47;64.07
48553;BME280;34335;51.566;6.994;2022-08-07T07:12:47;101985.84;;;17.52;61.99
48553;BME280;34335;51.566;6.994;2022-08-07T07:15:16;101983.06;;;17.69;62.32
48553;BME280;34335;51.566;6.994;2022-08-07T07:17:55;101982.94;;;17.82;62.59
48553;BME280;34335;51.566;6.994;2022-08-07T07:20:36;101980.78;;;18.18;62.08
48553;BME280;34335;51.566;6.994;2022-08-07T07:23:05;101985.00;;;18.30;59.23
48553;BME280;34335;51.566;6.994;2022-08-07T07:25:33;101989.06;;;18.54;61.60
48553;BME280;34335;51.566;6.994;2022-08-07T07:28:06;101968.81;;;18.58;60.18
48553;BME280;34335;51.566;6.994;2022-08-07T07:30:39;101969.44;;;18.77;60.21
48553;BME280;34335;51.566;6.994;2022-08-07T07:33:08;101970.91;;;18.98;59.73
48553;BME280;34335;51.566;6.994;2022-08-07T07:35:35;101970.75;;;19.09;59.14
48553;BME280;34335;51.566;6.994;2022-08-07T07:38:01;101967.78;;;19.26;54.93
48553;BME280;34335;51.566;6.994;2022-08-07T07:40:30;101969.47;;;19.31;57.63
48553;BME280;34335;51.566;6.994;2022-08-07T07:42:57;101969.28;;;19.41;58.36
48553;BME280;34335;51.566;6.994;2022-08-07T07:45:26;101971.50;;;19.64;56.33
48553;BME280;34335;51.566;6.994;2022-08-07T07:47:54;101969.53;;;19.75;54.17
48553;BME280;34335;51.566;6.994;2022-08-07T07:50:22;101964.81;;;19.95;55.51
48553;BME280;34335;51.566;6.994;2022-08-07T07:52:49;101960.16;;;20.06;50.96
48553;BME280;34335;51.566;6.994;2022-08-07T07:55:18;101959.41;;;20.01;55.85
48553;BME280;34335;51.566;6.994;2022-08-07T07:57:46;101962.09;;;19.99;52.55
48553;BME280;34335;51.566;6.994;2022-08-07T08:00:12;101955.81;;;20.44;56.16
48553;BME280;34335;51.566;6.994;2022-08-07T08:02:39;101955.72;;;20.88;54.93
48553;BME280;34335;51.566;6.994;2022-08-07T08:05:07;101952.72;;;21.02;52.78
48553;BME280;34335;51.566;6.994;2022-08-07T08:07:34;101961.81;;;21.26;53.17
48553;BME280;34335;51.566;6.994;2022-08-07T08:10:02;101956.44;;;21.29;46.80
48553;BME280;34335;51.566;6.994;2022-08-07T08:12:29;101960.22;;;21.54;52.03
48553;BME280;34335;51.566;6.994;2022-08-07T08:14:55;101960.78;;;21.67;51.07
48553;BME280;34335;51.566;6.994;2022-08-07T08:17:21;101951.66;;;21.77;51.13
48553;BME280;34335;51.566;6.994;2022-08-07T08:19:50;101956.13;;;21.76;45.90
48553;BME280;34335;51.566;6.994;2022-08-07T08:22:19;101951.75;;;22.05;50.65
48553;BME280;34335;51.566;6.994;2022-08-07T08:25:05;101948.03;;;22.43;51.40
48553;BME280;34335;51.566;6.994;2022-08-07T08:27:52;101944.72;;;22.63;50.00
48553;BME280;34335;51.566;6.994;2022-08-07T08:30:19;101943.81;;;22.64;48.29
48553;BME280;34335;51.566;6.994;2022-08-07T08:32:48;101949.19;;;22.89;49.16
48553;BME280;34335;51.566;6.994;2022-08-07T08:35:19;101950.81;;;22.93;46.66
48553;BME280;34335;51.566;6.994;2022-08-07T08:37:46;101943.19;;;23.09;48.44
48553;BME280;34335;51.566;6.994;2022-08-07T08:40:18;101939.31;;;23.21;47.23
48553;BME280;34335;51.566;6.994;2022-08-07T08:43:33;101926.22;;;23.42;47.32
48553;BME280;34335;51.566;6.994;2022-08-07T08:45:47;101932.47;;;23.39;41.73
48553;BME280;34335;51.566;6.994;2022-08-07T08:48:34;101936.34;;;23.54;42.57
48553;BME280;34335;51.566;6.994;2022-08-07T08:51:06;101924.31;;;23.69;43.68
48553;BME280;34335;51.566;6.994;2022-08-07T08:53:41;101930.00;;;23.84;42.58
48553;BME280;34335;51.566;6.994;2022-08-07T08:56:22;101935.41;;;23.80;38.43
48553;BME280;34335;51.566;6.994;2022-08-07T08:58:52;101927.47;;;24.04;43.71
48553;BME280;34335;51.566;6.994;2022-08-07T09:04:07;101933.38;;;24.35;42.61
48553;BME280;34335;51.566;6.994;2022-08-07T09:06:57;101931.63;;;23.62;42.21
48553;BME280;34335;51.566;6.994;2022-08-07T09:09:57;101933.31;;;24.36;42.86
48553;BME280;34335;51.566;6.994;2022-08-07T09:17:51;101928.34;;;24.73;36.27
48553;BME280;34335;51.566;6.994;2022-08-07T09:20:49;101926.44;;;24.97;39.22
48553;BME280;34335;51.566;6.994;2022-08-07T09:23:26;101925.53;;;25.19;40.83
48553;BME280;34335;51.566;6.994;2022-08-07T09:28:41;101926.22;;;23.42;34.24
48553;BME280;34335;51.566;6.994;2022-08-07T09:36:31;101920.16;;;25.60;40.70
48553;BME280;34335;51.566;6.994;2022-08-07T09:42:20;101916.25;;;26.07;40.02
48553;BME280;34335;51.566;6.994;2022-08-07T09:45:14;101913.53;;;26.28;41.12
48553;BME280;34335;51.566;6.994;2022-08-07T09:50:29;101906.88;;;25.79;33.91
48553;BME280;34335;51.566;6.994;2022-08-07T09:53:03;101913.72;;;25.85;37.47
48553;BME280;34335;51.566;6.994;2022-08-07T09:58:55;101904.19;;;26.37;36.88
48553;BME280;34335;51.566;6.994;2022-08-07T10:01:29;101897.44;;;26.66;34.63
48553;BME280;34335;51.566;6.994;2022-08-07T10:04:51;101898.59;;;26.43;33.23
48553;BME280;34335;51.566;6.994;2022-08-07T10:07:33;101894.69;;;27.03;38.58
48553;BME280;34335;51.566;6.994;2022-08-07T10:15:59;101888.94;;;27.62;36.62
48553;BME280;34335;51.566;6.994;2022-08-07T10:18:40;101874.69;;;27.12;28.98
48553;BME280;34335;51.566;6.994;2022-08-07T10:24:20;101869.06;;;27.67;34.16
48553;BME280;34335;51.566;6.994;2022-08-07T10:32:46;101872.47;;;27.20;27.55
48553;BME280;34335;51.566;6.994;2022-08-07T10:37:54;101859.50;;;28.27;32.69
48553;BME280;34335;51.566;6.994;2022-08-07T10:40:39;101863.13;;;28.10;32.68
48553;BME280;34335;51.566;6.994;2022-08-07T10:45:41;101860.19;;;28.61;32.74
48553;BME280;34335;51.566;6.994;2022-08-07T10:50:59;101858.56;;;27.64;29.98
48553;BME280;34335;51.566;6.994;2022-08-07T10:53:56;101865.81;;;25.83;28.71
48553;BME280;34335;51.566;6.994;2022-08-07T10:56:58;101852.16;;;27.99;30.02
48553;BME280;34335;51.566;6.994;2022-08-07T11:02:21;101846.06;;;29.04;30.34
48553;BME280;34335;51.566;6.994;2022-08-07T11:10:19;101833.06;;;29.56;30.69
48553;BME280;34335;51.566;6.994;2022-08-07T11:13:51;101824.94;;;29.58;29.93
48553;BME280;34335;51.566;6.994;2022-08-07T11:16:05;101824.13;;;29.70;31.54
48553;BME280;34335;51.566;6.994;2022-08-07T11:18:41;101821.97;;;29.48;25.63
48553;BME280;34335;51.566;6.994;2022-08-07T11:21:21;101821.97;;;29.48;30.15
48553;BME280;34335;51.566;6.994;2022-08-07T11:23:55;101820.44;;;29.58;29.66
48553;BME280;34335;51.566;6.994;2022-08-07T11:26:27;101821.06;;;29.76;30.36
48553;BME280;34335;51.566;6.994;2022-08-07T11:29:02;101816.41;;;28.48;26.83
48553;BME280;34335;51.566;6.994;2022-08-07T11:31:40;101812.13;;;29.90;30.55
48553;BME280;34335;51.566;6.994;2022-08-07T11:34:21;101808.03;;;30.12;29.01
48553;BME280;34335;51.566;6.994;2022-08-07T11:37:05;101814.78;;;29.48;28.31
48553;BME280;34335;51.566;6.994;2022-08-07T11:39:47;101809.72;;;29.44;26.47
48553;BME280;34335;51.566;6.994;2022-08-07T11:53:32;101790.47;;;30.74;28.44
48553;BME280;34335;51.566;6.994;2022-08-07T12:01:33;101787.53;;;29.83;27.05
48553;BME280;34335;51.566;6.994;2022-08-07T12:07:02;101781.97;;;30.54;29.73
48553;BME280;34335;51.566;6.994;2022-08-07T12:09:35;101782.84;;;30.68;28.15
48553;BME280;34335;51.566;6.994;2022-08-07T12:12:09;101779.63;;;30.35;26.25
48553;BME280;34335;51.566;6.994;2022-08-07T12:14:45;101786.91;;;30.86;28.50
48553;BME280;34335;51.566;6.994;2022-08-07T12:17:13;101777.66;;;30.77;26.93
48553;BME280;34335;51.566;6.994;2022-08-07T12:25:05;101787.34;;;30.67;24.20
48553;BME280;34335;51.566;6.994;2022-08-07T12:28:01;101782.41;;;30.87;27.30
48553;BME280;34335;51.566;6.994;2022-08-07T12:30:33;101779.44;;;30.51;28.08
48553;BME280;34335;51.566;6.994;2022-08-07T12:33:12;101782.34;;;28.36;28.66
48553;BME280;34335;51.566;6.994;2022-08-07T12:35:44;101774.34;;;30.87;28.86
48553;BME280;34335;51.566;6.994;2022-08-07T12:38:11;101771.47;;;30.77;27.71
48553;BME280;34335;51.566;6.994;2022-08-07T12:40:39;101767.28;;;30.20;22.43
48553;BME280;34335;51.566;6.994;2022-08-07T12:43:06;101764.53;;;31.24;28.40
48553;BME280;34335;51.566;6.994;2022-08-07T12:45:46;101758.47;;;31.95;27.88
48553;BME280;34335;51.566;6.994;2022-08-07T12:51:25;101754.38;;;32.14;25.00
48553;BME280;34335;51.566;6.994;2022-08-07T12:56:24;101760.19;;;29.22;26.33
48553;BME280;34335;51.566;6.994;2022-08-07T12:58:51;101757.50;;;31.11;29.77
48553;BME280;34335;51.566;6.994;2022-08-07T13:09:41;101741.78;;;32.50;28.62
48553;BME280;34335;51.566;6.994;2022-08-07T13:12:31;101737.44;;;32.83;27.64
48553;BME280;34335;51.566;6.994;2022-08-07T13:15:27;101746.97;;;30.56;23.58
48553;BME280;34335;51.566;6.994;2022-08-07T13:20:47;101732.16;;;32.82;26.91
48553;BME280;34335;51.566;6.994;2022-08-07T13:23:18;101731.03;;;33.18;27.70
48553;BME280;34335;51.566;6.994;2022-08-07T13:26:00;101724.41;;;32.77;23.65
48553;BME280;34335;51.566;6.994;2022-08-07T13:28:40;101736.03;;;32.55;27.79
48553;BME280;34335;51.566;6.994;2022-08-07T13:31:26;101735.75;;;31.01;24.31
48553;BME280;34335;51.566;6.994;2022-08-07T13:36:42;101720.38;;;32.60;22.42
48553;BME280;34335;51.566;6.994;2022-08-07T13:39:32;101716.81;;;32.71;26.32
48553;BME280;34335;51.566;6.994;2022-08-07T13:41:59;101721.03;;;31.44;23.02
48553;BME280;34335;51.566;6.994;2022-08-07T13:44:31;101725.69;;;30.78;24.64
48553;BME280;34335;51.566;6.994;2022-08-07T13:46:59;101714.41;;;30.35;24.70
48553;BME280;34335;51.566;6.994;2022-08-07T13:49:27;101713.84;;;32.28;27.10
48553;BME280;34335;51.566;6.994;2022-08-07T13:51:56;101705.41;;;32.44;26.45
48553;BME280;34335;51.566;6.994;2022-08-07T13:54:28;101702.59;;;33.69;26.77
48553;BME280;34335;51.566;6.994;2022-08-07T13:56:56;101710.06;;;33.22;21.80
48553;BME280;34335;51.566;6.994;2022-08-07T13:59:26;101711.16;;;32.40;23.24
48553;BME280;34335;51.566;6.994;2022-08-07T14:01:59;101692.97;;;33.55;26.24
48553;BME280;34335;51.566;6.994;2022-08-07T14:04:43;101693.16;;;33.64;22.50
48553;BME280;34335;51.566;6.994;2022-08-07T14:07:10;101699.75;;;32.25;21.63
48553;BME280;34335;51.566;6.994;2022-08-07T14:09:38;101684.88;;;33.55;22.27
48553;BME280;34335;51.566;6.994;2022-08-07T14:12:06;101686.53;;;33.24;23.04
48553;BME280;34335;51.566;6.994;2022-08-07T14:14:42;101686.91;;;33.42;25.60
48553;BME280;34335;51.566;6.994;2022-08-07T14:17:12;101679.78;;;34.16;23.99
48553;BME280;34335;51.566;6.994;2022-08-07T14:19:52;101691.59;;;32.26;22.49
48553;BME280;34335;51.566;6.994;2022-08-07T14:22:24;101681.03;;;33.37;23.71
48553;BME280;34335;51.566;6.994;2022-08-07T14:24:56;101682.38;;;33.96;24.90
48553;BME280;34335;51.566;6.994;2022-08-07T14:27:35;101685.72;;;32.78;22.31
48553;BME280;34335;51.566;6.994;2022-08-07T14:30:10;101686.84;;;32.98;23.08
48553;BME280;34335;51.566;6.994;2022-08-07T14:32:42;101680.91;;;34.13;25.23
48553;BME280;34335;51.566;6.994;2022-08-07T14:35:15;101677.81;;;34.39;24.05
48553;BME280;34335;51.566;6.994;2022-08-07T14:37:45;101676.91;;;32.99;26.33
48553;BME280;34335;51.566;6.994;2022-08-07T14:40:15;101667.22;;;34.47;22.07
48553;BME280;34335;51.566;6.994;2022-08-07T14:42:40;101666.16;;;35.20;24.79
48553;BME280;34335;51.566;6.994;2022-08-07T14:45:08;101666.19;;;34.48;23.93
48553;BME280;34335;51.566;6.994;2022-08-07T14:47:37;101659.31;;;34.66;24.29
48553;BME280;34335;51.566;6.994;2022-08-07T14:50:05;101662.16;;;34.74;21.31